Alken, Belgium
Current Conditions -  °F | °C
As of 8:25 AM on Saturday 29 Nov 2014 (Local Time) from EBDT Reporting Station
Clear Clear  
Wind Chill: 31°   Ceiling: Unl
Heat Index: 36°   Visibility: 3mi
Dew Point: 36°   Wind: 6mph
Humidity: 100%   Direction: 70°ENE
Pressure: 29.91"   Gusts: NA
Location:  50.88°N, 5.31°E
Report Text: EBDT 290725Z AUTO 07005KT 5000 NCD 02/02 Q1013 WHT
Loading
Personal Weather Stations






























Interactive Weather Map New forecast layout! Learn more

10-Day Weather Forecast

Advertisements
Track Severe Weather on mobile